Flight Track Log - Related Links

Times and Time Zones

All times are in EDT time to prevent confusion due to time zone crossing. See the AAY894 flight status page for this flight to view local times or setup timezone preferences in your user account.

Time Position Orientation Groundspeed Altitude Reporting Facility
EDT Latitude Longitude Course Direction KTS MPH feet Rate Location/Type
Sun 08:24:51 AM 27.9333 -82.7000 North 179 206 1,000  Level Tampa TRACON
Sun 08:25:09 AM 27.9500 -82.7000 360° North 170 196 1,400 1,659 Climbing Tampa TRACON
Sun 08:26:54 AM 28.0392 -82.6433 29° Northeast 245 282 4,400 2,073 Climbing Jacksonville Center
Sun 08:27:54 AM 28.1142 -82.6150 18° North 257 296 7,100 2,550 Climbing Jacksonville Center
Sun 08:28:54 AM 28.1914 -82.5911 15° North 277 319 9,500 2,100 Climbing Jacksonville Center
Sun 08:29:54 AM 28.2769 -82.5839 North 291 335 11,300 1,600 Climbing Jacksonville Center
Sun 08:30:00 AM 28.5863 -82.6500 North  Level FlightAware Approximate
Sun 08:30:54 AM 28.3792 -82.5764 North 328 377 12,700  Level Jacksonville Center
Sun 08:31:54 AM 28.4917 -82.5714 North 369 425 14,900 2,100 Climbing Jacksonville Center
Sun 08:32:54 AM 28.6025 -82.5758 358° North 390 449 16,900 1,900 Climbing Jacksonville Center
Sun 08:33:54 AM 28.7297 -82.5847 356° North 408 470 18,700 1,750 Climbing Jacksonville Center
Sun 08:34:54 AM 28.8383 -82.5917 357° North 427 491 20,400 1,600 Climbing Jacksonville Center
Sun 08:35:54 AM 28.9614 -82.5983 357° North 432 497 21,900 1,550 Climbing Jacksonville Center
Sun 08:36:54 AM 29.0844 -82.6028 358° North 442 509 23,500 1,350 Climbing Jacksonville Center
Sun 08:37:54 AM 29.2139 -82.6094 357° North 442 509 24,600 1,400 Climbing Jacksonville Center
Sun 08:38:54 AM 29.3414 -82.6186 356° North 452 520 26,300 1,500 Climbing Jacksonville Center
Sun 08:39:54 AM 29.4667 -82.6253 357° North 452 520 27,600 1,350 Climbing Jacksonville Center
Sun 08:40:54 AM 29.5961 -82.6297 358° North 457 526 29,000 1,250 Climbing Jacksonville Center
Sun 08:41:54 AM 29.7233 -82.6392 356° North 457 526 30,100 1,100 Climbing Jacksonville Center
Sun 08:42:54 AM 29.8592 -82.6508 356° North 449 517 31,200 950 Climbing Jacksonville Center
Sun 08:43:54 AM 29.9867 -82.6575 357° North 449 517 32,000 750 Climbing Jacksonville Center
Sun 08:44:54 AM 30.0972 -82.6597 359° North 444 511 32,700 450 Climbing Jacksonville Center
Sun 08:45:54 AM 30.2225 -82.6667 357° North 444 511 32,900 150 Climbing Jacksonville Center
Sun 08:46:54 AM 30.3456 -82.6736 357° North 439 505 33,000  Climbing Jacksonville Center
Sun 08:47:54 AM 30.4667 -82.6806 357° North 439 505 32,900  Descending Jacksonville Center
Sun 08:48:54 AM 30.6044 -82.6706 North 439 505 33,000  Climbing Jacksonville Center
Sun 08:49:54 AM 30.7319 -82.6483 North 444 511 32,900 -50 Descending Jacksonville Center
Sun 08:50:54 AM 30.8592 -82.6289 North 449 517 32,900 50 Level Jacksonville Center
Sun 08:51:54 AM 30.9867 -82.6067 North 454 522 33,000  Climbing Jacksonville Center
Sun 08:52:54 AM 31.0992 -82.5869 North 454 522 32,900  Descending Jacksonville Center
Sun 08:53:54 AM 31.2267 -82.5647 North 454 522 33,000 50 Climbing Jacksonville Center
Sun 08:54:54 AM 31.3683 -82.5372 North 460 529 33,000  Level Jacksonville Center
Sun 08:57:10 AM 31.6514 -82.4897 North 446 513 33,000  Level Atlanta Center
Sun 08:58:10 AM 31.7761 -82.4681 North 446 513 33,000  Level Atlanta Center
Sun 08:59:10 AM 31.9011 -82.4486 North 446 513 33,000  Level Atlanta Center
Sun 09:00:10 AM 32.0261 -82.4294 North 446 513 33,000  Level Atlanta Center
Sun 09:01:10 AM 32.1511 -82.4000 11° North 446 513 33,000  Level Atlanta Center
Sun 09:02:10 AM 32.2633 -82.3711 12° North 446 513 33,000  Level Atlanta Center
Sun 09:03:10 AM 32.3883 -82.3442 10° North 446 513 33,000  Level Atlanta Center
Sun 09:04:10 AM 32.5131 -82.3169 10° North 446 513 33,000  Level Atlanta Center
Sun 09:05:10 AM 32.6358 -82.2900 10° North 446 513 33,000  Level Atlanta Center
Sun 09:06:10 AM 32.7753 -82.2550 12° North 456 525 33,000  Level Atlanta Center
Sun 09:07:10 AM 32.8981 -82.2303 10° North 451 519 33,000  Level Atlanta Center
Sun 09:08:10 AM 33.0208 -82.2006 11° North 446 513 33,000  Level Atlanta Center
Sun 09:09:10 AM 33.1456 -82.1731 10° North 451 519 33,000  Level Atlanta Center
Sun 09:10:10 AM 33.2683 -82.1431 12° North 451 519 33,000  Level Atlanta Center
Sun 09:11:10 AM 33.3908 -82.1156 11° North 451 519 33,000  Level Atlanta Center
Sun 09:12:10 AM 33.5158 -82.0878 10° North 451 519 33,000  Level Atlanta Center
Sun 09:13:10 AM 33.6383 -82.0600 11° North 446 513 33,000  Level Atlanta Center
Sun 09:14:10 AM 33.7611 -82.0300 11° North 446 513 33,000  Level Atlanta Center
Sun 09:15:10 AM 33.8756 -82.0022 11° North 452 520 33,000  Level Atlanta Center
Sun 09:16:10 AM 33.9961 -81.9767 10° North 452 520 33,000  Level Atlanta Center
Sun 09:17:10 AM 34.1208 -81.9411 13° North 452 520 33,000  Level Atlanta Center
Sun 09:18:10 AM 34.2433 -81.9053 14° North 452 520 33,000  Level Atlanta Center
Sun 09:19:10 AM 34.3656 -81.8669 15° North 452 520 33,000  Level Atlanta Center
Sun 09:20:10 AM 34.4883 -81.8336 13° North 452 520 33,000  Level Atlanta Center
Sun 09:21:10 AM 34.6128 -81.7950 14° North 452 520 33,000  Level Atlanta Center
Sun 09:22:10 AM 34.7500 -81.7636 11° North 452 520 33,000  Level Atlanta Center
Sun 09:23:10 AM 34.8681 -81.7222 16° North 446 513 33,000  Level Atlanta Center
Sun 09:24:10 AM 34.9906 -81.6886 13° North 446 513 33,000  Level Atlanta Center
Sun 09:25:10 AM 35.1131 -81.6519 14° North 446 513 33,000  Level Atlanta Center
Sun 09:26:10 AM 35.2311 -81.6156 14° North 446 513 33,000  Level Atlanta Center
Sun 09:27:10 AM 35.3536 -81.5789 14° North 446 513 33,000  Level Atlanta Center
Sun 09:28:10 AM 35.4758 -81.5419 14° North 446 513 33,000  Level Atlanta Center
Sun 09:29:10 AM 35.5942 -81.5078 13° North 446 513 33,000  Level Atlanta Center
Sun 09:30:10 AM 35.7142 -81.4683 15° North 446 513 33,000  Level Atlanta Center
Sun 09:31:10 AM 35.8325 -81.4314 14° North 446 513 33,000  Level Atlanta Center
Sun 09:32:10 AM 35.9403 -81.3997 13° North 446 513 33,000  Level Atlanta Center
Sun 09:33:10 AM 36.0583 -81.3625 14° North 440 506 33,000  Level Atlanta Center
Sun 09:34:10 AM 36.1764 -81.3250 14° North 435 501 33,000  Level Atlanta Center
Sun 09:35:10 AM 36.2922 -81.2875 15° North 430 495 33,000  Level Atlanta Center
Sun 09:36:10 AM 36.4125 -81.2500 14° North 430 495 33,000  Level Atlanta Center
Sun 09:37:10 AM 36.5283 -81.2125 15° North 430 495 33,000  Level Atlanta Center
Sun 09:38:10 AM 36.6464 -81.1797 13° North 430 495 33,000  Level Atlanta Center
Sun 09:39:10 AM 36.7622 -81.1392 16° North 430 495 33,000  Level Atlanta Center
Sun 09:40:10 AM 36.8761 -81.1067 13° North 424 488 33,000  Level Atlanta Center
Sun 09:42:17 AM 37.1400 -81.0250 14° North 439 505 33,000  Level Indianapolis Center
Sun 09:43:19 AM 37.2533 -80.9878 15° North 438 504 33,000  Level Indianapolis Center
Sun 09:44:20 AM 37.3681 -80.9483 15° North 437 503 33,000  Level Indianapolis Center
Sun 09:45:22 AM 37.5053 -80.9172 10° North 431 496 33,000  Level Indianapolis Center
Sun 09:46:23 AM 37.6211 -80.8939 North 428 493 33,000  Level Indianapolis Center
Sun 09:47:25 AM 37.7367 -80.8714 North 428 493 33,000  Level Indianapolis Center
Sun 09:48:27 AM 37.8653 -80.8433 10° North 428 493 33,000  Level Indianapolis Center
Sun 09:49:28 AM 37.9831 -80.8194 North 427 491 33,000  Level Indianapolis Center
Sun 09:50:30 AM 38.1003 -80.7944 10° North 427 491 33,000  Level Indianapolis Center
Sun 09:51:31 AM 38.2197 -80.7703 North 428 493 33,000  Level Indianapolis Center
Sun 09:52:33 AM 38.3397 -80.7458 North 433 498 33,000  Level Indianapolis Center
Sun 09:53:35 AM 38.4575 -80.7206 10° North 433 498 33,000  Level Indianapolis Center
Sun 09:54:36 AM 38.5764 -80.6967 North 433 498 33,000  Level Indianapolis Center
Sun 09:55:38 AM 38.7167 -80.6656 10° North 432 497 33,000  Level Indianapolis Center
Sun 09:56:39 AM 38.8333 -80.6411 North 430 495 33,000  Level Indianapolis Center
Sun 09:57:41 AM 38.9514 -80.6153 10° North 430 495 33,000  Level Indianapolis Center
Sun 09:58:43 AM 39.0689 -80.5908 North 430 495 33,000  Level Indianapolis Center
Sun 09:59:44 AM 39.1856 -80.5667 North 428 493 33,000  Level Indianapolis Center
Sun 10:00:46 AM 39.3008 -80.5422 North 425 489 33,000  Level Indianapolis Center
Sun 10:01:47 AM 39.4169 -80.5175 North 421 484 33,000  Level Indianapolis Center
Sun 10:02:49 AM 39.5306 -80.4781 15° North 422 486 33,000  Level Indianapolis Center
Sun 10:03:51 AM 39.6664 -80.4228 17° North 423 487 33,000  Level Indianapolis Center
Sun 10:04:52 AM 39.7800 -80.3789 17° North 424 488 33,000  Level Indianapolis Center
Sun 10:05:54 AM 39.8933 -80.3344 17° North 424 488 33,000  Level Indianapolis Center
Sun 10:06:55 AM 40.0058 -80.2894 17° North 424 488 33,000  Level Indianapolis Center
Sun 10:07:57 AM 40.1178 -80.2447 17° North 423 487 33,000  Level Indianapolis Center
Sun 10:09:14 AM 40.2575 -80.1900 17° North 421 484 33,000 -993 Level Cleveland Center
Sun 10:10:16 AM 40.3850 -80.1397 17° North 419 482 30,700 -1,463 Descending Cleveland Center
Sun 10:11:17 AM 40.4914 -80.0961 17° North 410 472 30,000 -341 Descending Cleveland Center
Sun 10:12:19 AM 40.5953 -80.0547 17° North 396 456 30,000  Level Cleveland Center
Sun 10:13:20 AM 40.7006 -80.0136 16° North 396 456 30,000  Level Cleveland Center
Sun 10:14:22 AM 40.8000 -79.9739 17° North 396 456 30,000  Level Cleveland Center
Sun 10:15:23 AM 40.9042 -79.9322 17° North 392 451 30,000 -1,024 Level Cleveland Center
Sun 10:16:25 AM 41.0278 -79.8817 17° North 390 449 27,900 -1,463 Descending Cleveland Center
Sun 10:17:26 AM 41.1397 -79.8369 17° North 396 456 27,000 -439 Descending Cleveland Center
Sun 10:18:28 AM 41.2464 -79.7936 17° North 399 459 27,000  Level Cleveland Center
Sun 10:19:29 AM 41.3531 -79.7489 17° North 400 460 27,000 -585 Level Cleveland Center
Sun 10:20:31 AM 41.4589 -79.7033 18° North 400 460 25,800 -1,415 Descending Cleveland Center
Sun 10:21:32 AM 41.5653 -79.6594 17° North 400 460 24,100 -878 Descending Cleveland Center
Sun 10:22:34 AM 41.6719 -79.6156 17° North 400 460 24,000 -439 Descending Cleveland Center
Sun 10:23:35 AM 41.7758 -79.5719 17° North 399 459 23,200 -780 Descending Cleveland Center
Sun 10:24:37 AM 41.8708 -79.5322 17° North 365 420 22,400 -1,171 Descending Cleveland Center
Sun 10:25:38 AM 41.9794 -79.4944 14° North 338 389 20,800 -1,610 Descending Cleveland Center
Sun 10:26:40 AM 42.0675 -79.4975 359° North 321 369 19,100 -1,452 Descending Cleveland Center
Sun 10:27:42 AM 42.1569 -79.4978 360° North 323 372 17,800 -1,122 Descending Cleveland Center
Sun 10:28:43 AM 42.2442 -79.4972 360° North 315 362 16,800 -1,122 Descending Cleveland Center
Sun 10:29:45 AM 42.3281 -79.4992 359° North 306 352 15,500 -1,258 Descending Cleveland Center
Sun 10:30:47 AM 42.4103 -79.4767 11° North 305 351 14,200 -1,220 Descending Cleveland Center
Sun 10:31:48 AM 42.4906 -79.3992 35° Northeast 320 368 13,000 -1,268 Descending Cleveland Center
Sun 10:32:50 AM 42.5564 -79.3236 40° Northeast 316 364 11,600 -1,403 Descending Cleveland Center
Sun 10:33:52 AM 42.6214 -79.2539 38° Northeast 300 345 10,100 -1,366 Descending Cleveland Center
Sun 10:34:53 AM 42.6883 -79.1772 40° Northeast 280 322 8,800 -1,317 Descending Cleveland Center
Sun 10:35:55 AM 42.7431 -79.1161 39° Northeast 267 307 7,400 -1,403 Descending Cleveland Center
Sun 10:36:57 AM 42.8056 -79.0503 38° Northeast 268 308 5,900 -1,161 Descending Cleveland Center
Sun 10:37:59 AM 42.8675 -78.9892 36° Northeast 266 306 5,000 -585 Descending Cleveland Center
Sun 10:39:00 AM 42.9256 -78.9303 37° Northeast 255 293 4,700 -878 Descending Cleveland Center
Sun 10:40:02 AM 42.9781 -78.8600 44° Northeast 254 292 3,200 -1,299 Descending Cleveland Center
Sun 10:40:37 AM 43.0000 -78.8167 55° Northeast 250 288 2,600 -568 Descending Buffalo TRACON
Sun 10:41:37 AM 43.0667 -78.7833 20° North 201 231 2,300 -250 Descending Buffalo TRACON
Sun 10:42:37 AM 43.1000 -78.7833 360° North 147 169 2,100 -250 Descending Buffalo TRACON
Sun 10:43:37 AM 43.1167 -78.8333 295° West 130 150 1,800 -450 Descending Buffalo TRACON
Sun 10:44:37 AM 43.1167 -78.8833 270° West 121 139 1,200 -600 Descending Buffalo TRACON

Login

Don't have an account? Register now (free) for customized features, flight alerts, and more!